Rupert, Pennsylvania
Current Conditions -  °F | °C
As of 10:15 AM on Friday 31 Oct 2014 (Local Time) from KHZL Reporting Station
Clear Clear  
Wind Chill: 40°   Ceiling: Unl
Heat Index: 43°   Visibility: 10mi
Dew Point: 32°   Wind: 5mph
Humidity: 66%   Direction: 80°E
Pressure: 30"   Gusts: NA
Location:  41.0301°N, 76.4558°W
Report Text: KHZL 311415Z AUTO 08004KT 10SM CLR 06/00 A3000 RMK AO2
Loading
Personal Weather Stations






























Interactive Weather Map
Tropical Storm Tracking
New forecast layout! Learn more

10-Day Weather Forecast

Advertisements
Track Severe Weather on mobile